CheckWX is a tool to help pilots better visualize weather data.  It is not intended as a substitute for an official pre-flight weather briefing.

08:02:21 UTC

LEMG TAF
Málaga Airport
Málaga, Spain
TAF LEMG 190500Z 1906/2006 10006KT 9999 FEW015 SCT030 TX19/1912Z TN13/1906Z BECMG 1906/1908 27004KT PROB30 TEMPO 1906/1909 BKN010 BECMG 1909/1911 13008KT PROB30 TEMPO 1917/2003 3000 RA BKN010

Mar-19@
06:00 UTC

Mar-19 @ 06:00 UTC

Mar-20@
06:00 UTC

Mar-20 @ 06:00 UTC

TAF LEMG 190500Z 1906/2006 10006KT 9999 FEW015 SCT030 TX19/1912Z TN13/1906Z
Wind
  • 100° at 6 KTS
Cloud Levels
  • Few at 1,500' AGL
  • Scattered at 3,000' AGL

Mar-19@
06:00 UTC

Mar-19 @ 06:00 UTC

Mar-19@
09:00 UTC

Mar-19 @ 09:00 UTC

PROB30 TEMPO 1906/1909 BKN010

Temporary - 30% Likelihood

Temporary - 30% Likelihood during this time.

Cloud Levels
  • Broken at 1,000' AGL

Mar-19@
06:00 UTC

Mar-19 @ 06:00 UTC

Mar-19@
09:00 UTC

Mar-19 @ 09:00 UTC

BECMG 1906/1908 27004KT

Becoming

Becoming Conditions expected by Tue, Mar 19, 2019 @ 08:00 UTC

Wind
  • 270° at 4 KTS
Cloud Levels
  • Few at 1,500' AGL
  • Scattered at 3,000' AGL

Mar-19@
09:00 UTC

Mar-19 @ 09:00 UTC

Mar-20@
06:00 UTC

Mar-20 @ 06:00 UTC

BECMG 1909/1911 13008KT

Becoming

Becoming Conditions expected by Tue, Mar 19, 2019 @ 11:00 UTC

Wind
  • 130° at 8 KTS
Cloud Levels
  • Few at 1,500' AGL
  • Scattered at 3,000' AGL

Mar-19@
17:00 UTC

Mar-19 @ 17:00 UTC

Mar-20@
03:00 UTC

Mar-20 @ 03:00 UTC

PROB30 TEMPO 1917/2003 3000 RA BKN010

Temporary - 30% Likelihood

Temporary - 30% Likelihood during this time.

Conditions
Rain
Cloud Levels
  • Broken at 1,000' AGL